createdAt,value
2024-01-09T00:02:46.915Z,96825.47
2024-01-09T00:05:49.107Z,96830.59
2024-01-09T00:08:51.455Z,96826.09
2024-01-09T00:11:53.352Z,96823.63
2024-01-09T00:14:55.092Z,96827.19
2024-01-09T00:17:59.156Z,96821.25
2024-01-09T00:21:00.890Z,96824.81
2024-01-09T00:24:02.502Z,96821.41
2024-01-09T00:27:04.218Z,96827.50
2024-01-09T00:30:06.513Z,96826.63
2024-01-09T00:33:08.380Z,96819.63
2024-01-09T00:36:10.315Z,96812.66
2024-01-09T00:39:12.795Z,96806.66
2024-01-09T00:42:15.078Z,96806.72
2024-01-09T00:45:16.728Z,96811.13
2024-01-09T00:48:19.425Z,96807.69
2024-01-09T00:51:21.326Z,96819.13
2024-01-09T00:54:23.006Z,96814.03
2024-01-09T00:57:24.707Z,96817.53
2024-01-09T01:00:26.833Z,96811.59
2024-01-09T01:03:30.092Z,96819.47
2024-01-09T01:06:40.969Z,96820.59
2024-01-09T01:09:43.044Z,96821.53
2024-01-09T01:12:44.678Z,96825.94
2024-01-09T01:15:46.361Z,96829.69
2024-01-09T01:18:48.644Z,96834.03
2024-01-09T01:21:50.288Z,96828.38
2024-01-09T01:24:51.971Z,96836.00
2024-01-09T01:27:53.625Z,96844.81
2024-01-09T01:30:55.917Z,96843.19
2024-01-09T01:33:57.714Z,96855.50
2024-01-09T01:37:00.255Z,96851.34
2024-01-09T01:40:02.072Z,96844.66
2024-01-09T01:43:06.248Z,96849.09
2024-01-09T01:46:09.227Z,96843.19
2024-01-09T01:49:13.907Z,96849.19
2024-01-09T01:52:15.998Z,96850.16
2024-01-09T01:55:21.851Z,96850.25
2024-01-09T01:58:27.833Z,96842.56
2024-01-09T02:01:30.328Z,96841.69
2024-01-09T02:04:33.658Z,96844.34
2024-01-09T02:07:36.123Z,96843.69
2024-01-09T02:10:37.811Z,96837.59
2024-01-09T02:13:39.434Z,96844.59
2024-01-09T02:16:41.353Z,96844.63
2024-01-09T02:19:43.050Z,96834.22
2024-01-09T02:22:44.773Z,96835.13
2024-01-09T02:25:47.676Z,96831.78
2024-01-09T02:28:55.219Z,96826.66
2024-01-09T02:31:57.552Z,96828.31
2024-01-09T02:35:00.539Z,96825.75
2024-01-09T02:38:03.408Z,96830.97
2024-01-09T02:41:06.349Z,96835.31
2024-01-09T02:44:08.611Z,96833.56
2024-01-09T02:47:10.838Z,96832.84
2024-01-09T02:50:12.965Z,96834.69
2024-01-09T02:53:14.691Z,96831.19
2024-01-09T02:56:16.439Z,96836.38
2024-01-09T02:59:18.571Z,96827.72
2024-01-09T03:02:21.309Z,96822.66
2024-01-09T03:05:23.173Z,96817.22
2024-01-09T03:08:25.379Z,96824.94
2024-01-09T03:11:27.509Z,96817.22
2024-01-09T03:14:29.987Z,96816.34
2024-01-09T03:17:32.144Z,96811.00
2024-01-09T03:20:33.886Z,96815.31
2024-01-09T03:23:35.695Z,96824.88
2024-01-09T03:26:37.498Z,96825.56
2024-01-09T03:29:40.621Z,96817.69
2024-01-09T03:32:42.331Z,96822.81
2024-01-09T03:35:44.505Z,96823.59
2024-01-09T03:38:46.355Z,96826.16
2024-01-09T03:41:48.069Z,96825.25
2024-01-09T03:44:49.814Z,96822.59
2024-01-09T03:47:52.073Z,96819.03
2024-01-09T03:50:54.417Z,96820.94
2024-01-09T03:53:56.213Z,96826.81
2024-01-09T03:56:58.951Z,96819.09
2024-01-09T04:00:00.848Z,96814.66
2024-01-09T04:03:02.760Z,96817.22
2024-01-09T04:06:04.886Z,96819.84
2024-01-09T04:09:07.024Z,96826.75
2024-01-09T04:12:09.829Z,96812.88
2024-01-09T04:15:11.923Z,96823.34
2024-01-09T04:18:14.218Z,96827.78
2024-01-09T04:21:16.938Z,96820.03
2024-01-09T04:24:19.457Z,96820.13
2024-01-09T04:27:21.682Z,96821.84
2024-01-09T04:30:23.446Z,96821.97
2024-01-09T04:33:25.480Z,96823.72
2024-01-09T04:36:27.330Z,96823.72
2024-01-09T04:39:29.413Z,96822.91
2024-01-09T04:42:31.448Z,96818.81
2024-01-09T04:45:33.101Z,96822.09
2024-01-09T04:48:34.935Z,96831.75
2024-01-09T04:51:37.108Z,96826.69
2024-01-09T04:54:39.119Z,96831.22
2024-01-09T04:57:41.776Z,96841.59
2024-01-09T05:00:43.875Z,96832.97
2024-01-09T05:03:48.608Z,96837.25
2024-01-09T05:06:51.386Z,96830.59
2024-01-09T05:09:53.478Z,96834.75
2024-01-09T05:12:55.078Z,96844.16
2024-01-09T05:15:57.583Z,96841.44
2024-01-09T05:19:00.282Z,96842.31
2024-01-09T05:22:02.062Z,96826.06
2024-01-09T05:25:04.350Z,96847.50
2024-01-09T05:28:06.726Z,96837.19
2024-01-09T05:31:08.399Z,96843.19
2024-01-09T05:34:10.346Z,96853.69
2024-01-09T05:37:12.251Z,96848.50
2024-01-09T05:40:14.063Z,96842.66
2024-01-09T05:43:15.694Z,96852.22
2024-01-09T05:46:17.434Z,96861.63
2024-01-09T05:49:19.601Z,96851.19
2024-01-09T05:52:21.718Z,96855.50
2024-01-09T05:55:24.184Z,96861.66
2024-01-09T05:58:26.070Z,96857.38
2024-01-09T06:01:28.233Z,96858.31
2024-01-09T06:04:29.899Z,96859.22
2024-01-09T06:07:32.174Z,96856.59
2024-01-09T06:10:33.809Z,96866.28
2024-01-09T06:13:35.410Z,96865.47
2024-01-09T06:16:37.482Z,96867.19
2024-01-09T06:19:39.739Z,96868.13
2024-01-09T06:22:41.681Z,96867.31
2024-01-09T06:25:43.310Z,96864.78
2024-01-09T06:28:44.914Z,96869.06
2024-01-09T06:31:47.026Z,96870.75
2024-01-09T06:34:48.726Z,96870.75
2024-01-09T06:37:51.383Z,96883.78
2024-01-09T06:40:53.038Z,96877.72
2024-01-09T06:43:55.201Z,96869.97
2024-01-09T06:46:58.055Z,96881.13
2024-01-09T06:49:59.777Z,96886.38
2024-01-09T06:53:02.279Z,96879.53
2024-01-09T06:56:05.511Z,96889.94
2024-01-09T06:59:07.571Z,96880.41
2024-01-09T07:02:09.627Z,96896.06
2024-01-09T07:05:11.863Z,96889.19
2024-01-09T07:08:13.754Z,96892.78
2024-01-09T07:11:15.513Z,96891.03
2024-01-09T07:14:17.589Z,96891.19
2024-01-09T07:17:19.315Z,96898.25
2024-01-09T07:20:21.703Z,96903.53
2024-01-09T07:23:23.392Z,96907.81
2024-01-09T07:26:25.494Z,96910.50
2024-01-09T07:29:27.186Z,96907.94
2024-01-09T07:32:29.731Z,96914.06
2024-01-09T07:35:35.625Z,96912.34
2024-01-09T07:38:37.425Z,96906.19
2024-01-09T07:41:39.993Z,96914.00
2024-01-09T07:44:42.078Z,96909.88
2024-01-09T07:47:43.844Z,96913.28
2024-01-09T07:50:45.616Z,96923.66
2024-01-09T07:53:47.368Z,96915.19
2024-01-09T07:56:49.533Z,96917.81
2024-01-09T07:59:51.713Z,96927.38
2024-01-09T08:02:53.747Z,96935.19
2024-01-09T08:05:57.162Z,96932.66
2024-01-09T08:08:59.498Z,96935.22
2024-01-09T08:12:01.879Z,96938.81
2024-01-09T08:15:04.172Z,96933.66
2024-01-09T08:18:06.042Z,96938.88
2024-01-09T08:21:09.145Z,96940.59
2024-01-09T08:24:19.186Z,96929.25
2024-01-09T08:27:21.773Z,96933.56
2024-01-09T08:30:23.488Z,96940.56
2024-01-09T08:33:27.427Z,96934.50
2024-01-09T08:36:30.698Z,96943.28
2024-01-09T08:39:32.377Z,96943.34
2024-01-09T08:42:34.493Z,96938.06
2024-01-09T08:45:37.186Z,96944.94
2024-01-09T08:48:39.888Z,96942.38
2024-01-09T08:51:42.087Z,96932.75
2024-01-09T08:54:44.132Z,96937.03
2024-01-09T08:57:46.813Z,96941.38
2024-01-09T09:00:50.441Z,96943.03
2024-01-09T09:03:52.248Z,96939.56
2024-01-09T09:06:54.941Z,96936.09
2024-01-09T09:09:58.016Z,96941.28
2024-01-09T09:13:00.068Z,96944.00
2024-01-09T09:16:02.885Z,96941.41
2024-01-09T09:19:05.090Z,96952.56
2024-01-09T09:22:07.261Z,96947.47
2024-01-09T09:25:09.333Z,96942.13
2024-01-09T09:28:11.988Z,96954.03
2024-01-09T09:31:14.013Z,96951.38
2024-01-09T09:34:16.202Z,96940.88
2024-01-09T09:37:18.422Z,96952.91
2024-01-09T09:40:20.105Z,96936.53
2024-01-09T09:43:25.575Z,96947.72
2024-01-09T09:46:30.206Z,96936.41
2024-01-09T09:49:32.541Z,96941.66
2024-01-09T09:52:37.788Z,96942.34
2024-01-09T09:55:41.400Z,96939.00
2024-01-09T09:58:43.757Z,96945.72
2024-01-09T10:01:47.664Z,96942.13
2024-01-09T10:04:53.004Z,96939.34
2024-01-09T10:07:57.226Z,96942.81
2024-01-09T10:10:59.300Z,96934.91
2024-01-09T10:14:01.460Z,96945.19
2024-01-09T10:17:06.468Z,96933.88
2024-01-09T10:20:10.122Z,96923.56
2024-01-09T10:23:12.817Z,96927.25
2024-01-09T10:26:14.579Z,96938.25
2024-01-09T10:29:16.319Z,96940.88
2024-01-09T10:32:19.928Z,96937.41
2024-01-09T10:35:21.996Z,96936.44
2024-01-09T10:38:26.255Z,96934.50
2024-01-09T10:41:28.616Z,96936.09
2024-01-09T10:44:31.375Z,96937.78
2024-01-09T10:47:35.039Z,96920.34
2024-01-09T10:50:36.920Z,96904.84
2024-01-09T10:53:41.684Z,96912.38
2024-01-09T10:56:44.514Z,96908.06
2024-01-09T10:59:48.043Z,96904.56
2024-01-09T11:02:50.338Z,96904.47
2024-01-09T11:05:55.609Z,96906.06
2024-01-09T11:09:00.806Z,96899.06
2024-01-09T11:12:04.535Z,96900.59
2024-01-09T11:15:29.864Z,96901.25
2024-01-09T11:18:34.143Z,96896.75
2024-01-09T11:21:36.736Z,96889.69
2024-01-09T11:24:42.232Z,96887.75
2024-01-09T11:27:49.096Z,96883.31
2024-01-09T11:30:52.443Z,96879.69
2024-01-09T11:33:57.061Z,96878.78
2024-01-09T11:36:59.208Z,96875.19
2024-01-09T11:40:01.085Z,96870.75
2024-01-09T11:43:03.168Z,96866.44
2024-01-09T11:46:06.210Z,96864.56
2024-01-09T11:49:09.365Z,96857.41
2024-01-09T11:52:12.200Z,96857.38
2024-01-09T11:55:14.101Z,96863.25
2024-01-09T11:58:16.877Z,96861.34
2024-01-09T12:01:20.667Z,96858.72
2024-01-09T12:04:23.975Z,96856.88
2024-01-09T12:07:26.231Z,96858.41
2024-01-09T12:10:33.265Z,96854.84
2024-01-09T12:13:36.329Z,96861.56
2024-01-09T12:16:38.398Z,96843.34
2024-01-09T12:19:41.936Z,96843.97
2024-01-09T12:22:43.696Z,96842.88
2024-01-09T12:25:48.946Z,96845.41
2024-01-09T12:28:51.523Z,96846.91
2024-01-09T12:31:53.237Z,96856.41
2024-01-09T12:34:55.055Z,96851.06
2024-01-09T12:37:56.809Z,96842.28
2024-01-09T12:41:02.965Z,96831.88
2024-01-09T12:44:13.058Z,96839.38
2024-01-09T12:47:18.616Z,96838.28
2024-01-09T12:50:29.593Z,96842.56
2024-01-09T12:53:33.238Z,96829.38
2024-01-09T12:56:35.475Z,96829.28
2024-01-09T12:59:41.260Z,96829.22
2024-01-09T13:02:43.853Z,96832.50
2024-01-09T13:05:45.692Z,96828.03
2024-01-09T13:08:47.477Z,96821.75
2024-01-09T13:11:49.195Z,96819.88
2024-01-09T13:14:51.337Z,96814.56
2024-01-09T13:17:53.334Z,96814.56
2024-01-09T13:20:56.906Z,96811.91
2024-01-09T13:24:04.207Z,96807.50
2024-01-09T13:27:08.017Z,96806.75
2024-01-09T13:33:15.572Z,96819.69
2024-01-09T13:36:19.996Z,96811.81
2024-01-09T13:39:24.719Z,96823.75
2024-01-09T13:42:26.670Z,96813.19
2024-01-09T13:45:30.298Z,96813.19
2024-01-09T13:48:33.472Z,96809.75
2024-01-09T13:51:50.719Z,96816.53
2024-01-09T13:54:56.816Z,96815.44
2024-01-09T13:57:58.654Z,96815.38
2024-01-09T14:01:01.004Z,96817.09
2024-01-09T14:04:05.022Z,96817.03
2024-01-09T14:07:10.608Z,96818.66
2024-01-09T14:10:12.889Z,96817.75
2024-01-09T14:13:15.106Z,96815.00
2024-01-09T14:16:16.704Z,96825.47
2024-01-09T14:19:20.968Z,96820.19
2024-01-09T14:22:26.111Z,96816.56
2024-01-09T14:25:28.694Z,96822.59
2024-01-09T14:28:31.211Z,96816.56
2024-01-09T14:31:33.039Z,96809.78
2024-01-09T14:34:35.160Z,96819.19
2024-01-09T14:37:36.865Z,96813.25
2024-01-09T14:40:40.010Z,96815.78
2024-01-09T14:43:43.072Z,96820.28
2024-01-09T14:46:45.653Z,96822.91
2024-01-09T14:49:47.865Z,96819.44
2024-01-09T14:52:49.604Z,96830.00
2024-01-09T14:55:51.288Z,96825.63
2024-01-09T14:58:52.995Z,96818.69
2024-01-09T15:01:54.720Z,96823.94
2024-01-09T15:04:56.899Z,96818.00
2024-01-09T15:07:59.444Z,96818.91
2024-01-09T15:11:01.531Z,96819.81
2024-01-09T15:14:04.437Z,96821.50
2024-01-09T15:17:06.160Z,96825.88
2024-01-09T15:20:10.845Z,96826.72
2024-01-09T15:23:13.650Z,96829.41
2024-01-09T15:26:15.665Z,96837.25
2024-01-09T15:29:17.801Z,96831.25
2024-01-09T15:32:20.385Z,96835.66
2024-01-09T15:35:25.594Z,96838.38
2024-01-09T15:38:28.609Z,96845.38
2024-01-09T15:41:33.049Z,96848.13
2024-01-09T15:44:38.948Z,96843.91
2024-01-09T15:47:42.298Z,96839.63
2024-01-09T15:50:44.893Z,96840.63
2024-01-09T15:53:47.387Z,96838.16
2024-01-09T15:56:49.649Z,96844.28
2024-01-09T15:59:52.322Z,96842.75
2024-01-09T16:02:54.007Z,96852.47
2024-01-09T16:05:55.688Z,96856.94
2024-01-09T16:08:57.318Z,96859.63
2024-01-09T16:12:00.824Z,96860.59
2024-01-09T16:15:02.520Z,96858.09
2024-01-09T16:18:05.018Z,96854.81
2024-01-09T16:21:06.676Z,96858.50
2024-01-09T16:24:10.324Z,96860.50
2024-01-09T16:27:12.529Z,96862.41
2024-01-09T16:30:14.766Z,96871.25
2024-01-09T16:33:17.343Z,96867.97
2024-01-09T16:36:19.677Z,96867.22
2024-01-09T16:39:24.101Z,96870.91
2024-01-09T16:42:26.557Z,96872.78
2024-01-09T16:45:29.153Z,96869.53
2024-01-09T16:48:35.636Z,96875.78
2024-01-09T16:51:43.606Z,96875.00
2024-01-09T16:54:45.723Z,96871.63
2024-01-09T16:57:47.388Z,96864.88
2024-01-09T17:00:50.389Z,96869.34
2024-01-09T17:03:52.771Z,96859.97
2024-01-09T17:06:55.306Z,96859.97
2024-01-09T17:10:01.453Z,96863.66
2024-01-09T17:13:04.866Z,96861.88
2024-01-09T17:16:09.551Z,96859.44
2024-01-09T17:19:13.229Z,96857.78
2024-01-09T17:22:15.474Z,96863.16
2024-01-09T17:25:19.566Z,96864.06
2024-01-09T17:28:21.422Z,96876.34
2024-01-09T17:31:23.161Z,96876.41
2024-01-09T17:34:24.829Z,96865.41
2024-01-09T17:37:27.570Z,96880.06
2024-01-09T17:40:29.968Z,96869.72
2024-01-09T17:43:32.770Z,96873.34
2024-01-09T17:46:34.482Z,96866.47
2024-01-09T17:49:36.577Z,96874.38
2024-01-09T17:52:38.656Z,96872.75
2024-01-09T17:55:40.604Z,96861.72
2024-01-09T17:58:42.361Z,96859.03
2024-01-09T18:01:45.781Z,96858.22
2024-01-09T18:04:47.625Z,96859.97
2024-01-09T18:07:50.665Z,96855.75
2024-01-09T18:10:52.361Z,96861.09
2024-01-09T18:13:55.707Z,96869.78
2024-01-09T18:16:59.478Z,96867.22
2024-01-09T18:20:01.429Z,96859.53
2024-01-09T18:23:03.298Z,96863.06
2024-01-09T18:26:10.700Z,96859.66
2024-01-09T18:29:18.464Z,96859.81
2024-01-09T18:32:24.767Z,96866.78
2024-01-09T18:35:29.145Z,96860.81
2024-01-09T18:38:31.951Z,96863.53
2024-01-09T18:41:34.139Z,96865.28
2024-01-09T18:44:36.719Z,96870.56
2024-01-09T18:47:41.819Z,96862.81
2024-01-09T18:50:47.196Z,96861.19
2024-01-09T18:53:48.947Z,96872.50
2024-01-09T18:56:51.197Z,96875.25
2024-01-09T18:59:52.946Z,96870.97
2024-01-09T19:02:54.649Z,96874.50
2024-01-09T19:05:58.313Z,96872.00
2024-01-09T19:09:00.618Z,96873.88
2024-01-09T19:12:03.272Z,96878.31
2024-01-09T19:15:07.334Z,96868.88
2024-01-09T19:18:09.612Z,96875.84
2024-01-09T19:21:11.755Z,96875.94
2024-01-09T19:24:13.811Z,96877.75
2024-01-09T19:27:15.467Z,96872.69
2024-01-09T19:30:18.164Z,96874.44
2024-01-09T19:33:20.308Z,96874.50
2024-01-09T19:36:22.436Z,96876.34
2024-01-09T19:39:24.185Z,96873.84
2024-01-09T19:42:26.233Z,96882.63
2024-01-09T19:45:29.491Z,96878.31
2024-01-09T19:48:31.238Z,96881.84
2024-01-09T19:51:33.049Z,96874.19
2024-01-09T19:54:38.673Z,96872.47
2024-01-09T19:57:41.680Z,96876.88
2024-01-09T20:00:43.810Z,96878.75
2024-01-09T20:03:45.847Z,96874.47
2024-01-09T20:06:48.000Z,96872.13
2024-01-09T20:09:50.504Z,96878.84
2024-01-09T20:12:52.250Z,96879.81
2024-01-09T20:15:53.926Z,96876.44
2024-01-09T20:18:56.911Z,96882.59
2024-01-09T20:21:59.161Z,96878.31
2024-01-09T20:25:01.686Z,96877.53
2024-01-09T20:28:03.396Z,96872.44
2024-01-09T20:31:10.238Z,96867.31
2024-01-09T20:34:12.333Z,96869.97
2024-01-09T20:37:17.477Z,96868.34
2024-01-09T20:40:19.561Z,96874.44
2024-01-09T20:43:21.152Z,96887.44
2024-01-09T20:46:22.812Z,96887.53
2024-01-09T20:49:25.321Z,96887.63
2024-01-09T20:52:27.028Z,96876.56
2024-01-09T20:55:30.033Z,96882.56
2024-01-09T20:58:32.429Z,96883.50
2024-01-09T21:01:38.873Z,96880.94
2024-01-09T21:04:40.760Z,96878.41
2024-01-09T21:07:44.057Z,96878.41
2024-01-09T21:10:46.142Z,96869.81
2024-01-09T21:13:47.877Z,96875.06
2024-01-09T21:16:50.084Z,96882.97
2024-01-09T21:19:51.779Z,96878.72
2024-01-09T21:22:53.795Z,96877.03
2024-01-09T21:25:55.575Z,96884.81
2024-01-09T21:28:57.705Z,96883.97
2024-01-09T21:31:59.396Z,96885.75
2024-01-09T21:35:02.432Z,96879.72
2024-01-09T21:38:05.354Z,96888.41
2024-01-09T21:41:08.593Z,96883.31
2024-01-09T21:44:10.285Z,96892.00
2024-01-09T21:47:12.169Z,96888.56
2024-01-09T21:50:14.049Z,96885.13
2024-01-09T21:53:16.299Z,96888.56
2024-01-09T21:56:18.096Z,96886.06
2024-01-09T21:59:21.599Z,96882.56
2024-01-09T22:02:24.342Z,96884.25
2024-01-09T22:05:26.584Z,96882.63
2024-01-09T22:08:28.260Z,96878.28
2024-01-09T22:11:30.994Z,96885.22
2024-01-09T22:14:32.917Z,96891.34
2024-01-09T22:17:35.027Z,96887.84
2024-01-09T22:20:36.620Z,96891.34
2024-01-09T22:23:39.762Z,96886.09
2024-01-09T22:26:45.630Z,96886.13
2024-01-09T22:29:47.229Z,96889.53
2024-01-09T22:32:49.789Z,96885.16
2024-01-09T22:35:51.655Z,96886.00
2024-01-09T22:38:53.793Z,96886.75
2024-01-09T22:41:55.475Z,96889.25
2024-01-09T22:44:57.097Z,96882.28
2024-01-09T22:47:59.133Z,96880.50
2024-01-09T22:51:01.765Z,96889.94
2024-01-09T22:54:04.914Z,96874.31
2024-01-09T22:57:08.064Z,96874.25
2024-01-09T23:00:22.719Z,96876.78
2024-01-09T23:03:25.616Z,96874.16
2024-01-09T23:06:27.319Z,96876.72
2024-01-09T23:09:29.378Z,96864.63
2024-01-09T23:12:30.956Z,96863.66
2024-01-09T23:15:32.590Z,96861.91
2024-01-09T23:18:34.284Z,96857.50
2024-01-09T23:21:35.922Z,96858.34
2024-01-09T23:24:38.430Z,96860.91
2024-01-09T23:27:40.425Z,96850.47
2024-01-09T23:30:42.093Z,96851.25
2024-01-09T23:33:44.533Z,96848.66
2024-01-09T23:36:46.783Z,96842.59
2024-01-09T23:39:48.376Z,96841.84
2024-01-09T23:42:50.024Z,96844.34
2024-01-09T23:45:51.635Z,96845.97
2024-01-09T23:48:53.828Z,96841.66
2024-01-09T23:51:56.427Z,96841.66
2024-01-09T23:54:59.690Z,96842.50
2024-01-09T23:58:01.823Z,96836.47
